createdAt,value
2023-02-26T00:00:48.160Z,72.96
2023-02-26T00:04:18.682Z,73.01
2023-02-26T00:07:46.299Z,72.85
2023-02-26T00:11:14.667Z,72.75
2023-02-26T00:14:43.589Z,72.68
2023-02-26T00:18:15.360Z,72.83
2023-02-26T00:21:45.026Z,72.67
2023-02-26T00:25:13.938Z,72.65
2023-02-26T00:28:45.948Z,72.67
2023-02-26T00:32:14.758Z,72.68
2023-02-26T00:35:42.888Z,72.59
2023-02-26T00:39:31.427Z,72.61
2023-02-26T00:42:59.759Z,72.84
2023-02-26T00:46:37.456Z,72.84
2023-02-26T00:50:18.465Z,72.78
2023-02-26T00:53:53.998Z,72.84
2023-02-26T00:57:21.380Z,72.93
2023-02-26T01:00:49.359Z,72.95
2023-02-26T01:04:18.834Z,72.67
2023-02-26T01:07:55.888Z,72.71
2023-02-26T01:11:25.072Z,72.69
2023-02-26T01:14:53.636Z,72.68
2023-02-26T01:18:25.573Z,72.65
2023-02-26T01:22:01.689Z,72.59
2023-02-26T01:25:33.246Z,72.43
2023-02-26T01:29:05.590Z,72.40
2023-02-26T01:32:43.963Z,72.36
2023-02-26T01:36:20.152Z,72.55
2023-02-26T01:39:58.366Z,72.68
2023-02-26T01:43:31.015Z,72.70
2023-02-26T01:47:18.691Z,72.76
2023-02-26T01:50:47.570Z,72.51
2023-02-26T01:54:15.559Z,72.64
2023-02-26T01:57:45.843Z,72.44
2023-02-26T02:01:12.600Z,72.52
2023-02-26T02:04:42.346Z,72.59
2023-02-26T02:08:10.249Z,72.38
2023-02-26T02:11:41.453Z,72.37
2023-02-26T02:15:13.800Z,72.35
2023-02-26T02:18:51.303Z,72.47
2023-02-26T02:22:40.035Z,72.48
2023-02-26T02:26:39.520Z,72.50
2023-02-26T02:30:25.780Z,72.49
2023-02-26T02:34:04.711Z,72.54
2023-02-26T02:37:36.162Z,72.41
2023-02-26T02:41:10.969Z,72.53
2023-02-26T02:44:44.960Z,72.51
2023-02-26T02:48:19.840Z,72.48
2023-02-26T02:51:51.984Z,72.65
2023-02-26T02:55:23.313Z,72.74
2023-02-26T02:58:54.020Z,72.69
2023-02-26T03:02:27.137Z,72.60
2023-02-26T03:05:56.430Z,72.48
2023-02-26T03:09:23.308Z,72.55
2023-02-26T03:12:51.484Z,72.38
2023-02-26T03:16:44.164Z,72.28
2023-02-26T03:20:22.589Z,72.36
2023-02-26T03:23:57.099Z,72.33
2023-02-26T03:27:28.517Z,72.24
2023-02-26T03:31:00.634Z,72.31
2023-02-26T03:34:34.886Z,72.30
2023-02-26T03:38:06.491Z,72.50
2023-02-26T03:41:40.161Z,72.57
2023-02-26T03:45:12.546Z,72.54
2023-02-26T03:48:40.178Z,72.71
2023-02-26T03:52:09.530Z,72.57
2023-02-26T03:56:04.114Z,72.57
2023-02-26T03:59:40.652Z,72.56
2023-02-26T04:03:28.978Z,72.54
2023-02-26T04:06:57.328Z,72.69
2023-02-26T04:10:31.301Z,72.60
2023-02-26T04:13:58.089Z,72.76
2023-02-26T04:17:25.166Z,72.70
2023-02-26T04:20:52.995Z,72.62
2023-02-26T04:24:19.917Z,72.61
2023-02-26T04:27:56.667Z,72.58
2023-02-26T04:31:24.413Z,72.54
2023-02-26T04:34:52.087Z,72.61
2023-02-26T04:38:19.252Z,72.60
2023-02-26T04:41:46.187Z,72.63
2023-02-26T04:45:13.434Z,72.66
2023-02-26T04:48:40.293Z,72.88
2023-02-26T04:52:07.448Z,72.92
2023-02-26T04:55:35.500Z,72.91
2023-02-26T04:59:03.879Z,72.89
2023-02-26T05:02:31.338Z,72.96
2023-02-26T05:05:58.331Z,73.10
2023-02-26T05:09:26.032Z,73.01
2023-02-26T05:12:53.940Z,73.10
2023-02-26T05:16:21.275Z,72.87
2023-02-26T05:19:48.444Z,72.88
2023-02-26T05:23:17.815Z,72.86
2023-02-26T05:26:45.415Z,72.84
2023-02-26T05:30:17.988Z,72.77
2023-02-26T05:33:45.693Z,72.73
2023-02-26T05:37:13.160Z,72.71
2023-02-26T05:40:41.155Z,72.75
2023-02-26T05:44:08.752Z,72.80
2023-02-26T05:47:36.318Z,72.84
2023-02-26T05:51:03.577Z,72.97
2023-02-26T05:54:30.369Z,73.02
2023-02-26T05:57:58.318Z,72.91
2023-02-26T06:01:28.130Z,73.03
2023-02-26T06:04:56.053Z,73.19
2023-02-26T06:08:23.434Z,73.11
2023-02-26T06:11:50.607Z,73.01
2023-02-26T06:15:17.804Z,73.07
2023-02-26T06:18:44.991Z,73.05
2023-02-26T06:22:11.800Z,73.09
2023-02-26T06:25:39.316Z,73.17
2023-02-26T06:29:06.971Z,73.06
2023-02-26T06:32:34.364Z,73.32
2023-02-26T06:36:01.602Z,73.25
2023-02-26T06:39:28.538Z,73.35
2023-02-26T06:42:55.345Z,73.38
2023-02-26T06:46:22.126Z,73.14
2023-02-26T06:49:49.978Z,73.19
2023-02-26T06:53:17.149Z,73.29
2023-02-26T06:56:43.992Z,73.32
2023-02-26T07:00:14.030Z,73.42
2023-02-26T07:03:42.343Z,73.36
2023-02-26T07:07:09.309Z,73.45
2023-02-26T07:10:37.385Z,73.53
2023-02-26T07:14:03.780Z,73.47
2023-02-26T07:17:33.237Z,73.53
2023-02-26T07:21:00.498Z,73.81
2023-02-26T07:24:27.709Z,73.75
2023-02-26T07:27:54.950Z,73.70
2023-02-26T07:31:21.790Z,73.76
2023-02-26T07:34:49.383Z,73.85
2023-02-26T07:38:19.550Z,73.95
2023-02-26T07:41:46.292Z,73.81
2023-02-26T07:45:18.917Z,73.75
2023-02-26T07:48:46.086Z,73.80
2023-02-26T07:52:12.539Z,73.62
2023-02-26T07:55:39.474Z,73.61
2023-02-26T07:59:07.248Z,73.78
2023-02-26T08:02:34.324Z,73.75
2023-02-26T08:06:01.255Z,73.72
2023-02-26T08:09:28.741Z,73.65
2023-02-26T08:12:56.335Z,73.52
2023-02-26T08:16:24.640Z,73.44
2023-02-26T08:19:51.368Z,73.38
2023-02-26T08:23:18.176Z,73.17
2023-02-26T08:26:46.476Z,73.17
2023-02-26T08:30:16.054Z,73.11
2023-02-26T08:33:43.259Z,73.02
2023-02-26T08:37:11.832Z,73.24
2023-02-26T08:40:38.491Z,73.17
2023-02-26T08:44:04.945Z,73.22
2023-02-26T08:47:32.000Z,73.01
2023-02-26T08:51:03.030Z,72.91
2023-02-26T08:54:29.755Z,72.96
2023-02-26T08:57:56.369Z,72.75
2023-02-26T09:01:23.065Z,72.63
2023-02-26T09:04:50.585Z,72.66
2023-02-26T09:08:20.883Z,72.60
2023-02-26T09:11:48.258Z,72.64
2023-02-26T09:15:15.784Z,72.43
2023-02-26T09:18:42.947Z,72.38
2023-02-26T09:22:10.387Z,72.22
2023-02-26T09:25:39.100Z,72.19
2023-02-26T09:29:06.447Z,72.20
2023-02-26T09:32:33.512Z,71.77
2023-02-26T09:36:00.566Z,71.90
2023-02-26T09:39:27.862Z,71.97
2023-02-26T09:43:07.540Z,71.93
2023-02-26T09:46:42.482Z,71.75
2023-02-26T09:50:17.589Z,71.81
2023-02-26T09:53:45.348Z,71.50
2023-02-26T09:57:16.666Z,71.41
2023-02-26T10:00:52.052Z,71.25
2023-02-26T10:04:26.418Z,71.17
2023-02-26T10:08:01.029Z,71.37
2023-02-26T10:11:35.549Z,71.17
2023-02-26T10:15:09.791Z,70.97
2023-02-26T10:18:42.203Z,70.85
2023-02-26T10:22:19.238Z,70.70
2023-02-26T10:25:49.621Z,70.49
2023-02-26T10:29:25.588Z,70.24
2023-02-26T10:33:01.276Z,70.19
2023-02-26T10:36:31.350Z,69.85
2023-02-26T10:40:06.870Z,70.18
2023-02-26T10:43:40.535Z,70.12
2023-02-26T10:47:17.196Z,69.55
2023-02-26T10:50:49.941Z,69.89
2023-02-26T10:54:23.320Z,69.48
2023-02-26T10:57:56.435Z,69.42
2023-02-26T11:01:27.078Z,69.12
2023-02-26T11:05:06.873Z,68.86
2023-02-26T11:08:38.749Z,68.85
2023-02-26T11:12:14.163Z,68.53
2023-02-26T11:15:41.683Z,68.45
2023-02-26T11:19:10.475Z,68.65
2023-02-26T11:22:38.648Z,68.02
2023-02-26T11:26:08.744Z,67.70
2023-02-26T11:29:40.588Z,67.05
2023-02-26T11:33:18.355Z,66.77
2023-02-26T11:36:48.456Z,66.69
2023-02-26T11:40:23.578Z,66.41
2023-02-26T11:43:58.578Z,66.17
2023-02-26T11:47:29.352Z,66.16
2023-02-26T11:51:00.558Z,66.25
2023-02-26T11:54:30.996Z,66.08
2023-02-26T11:57:59.321Z,66.19
2023-02-26T12:01:30.692Z,65.71
2023-02-26T12:05:02.056Z,65.26
2023-02-26T12:08:31.898Z,65.44
2023-02-26T12:12:19.361Z,65.29
2023-02-26T12:15:58.601Z,65.04
2023-02-26T12:19:44.016Z,64.91
2023-02-26T12:23:31.396Z,64.74
2023-02-26T12:27:05.377Z,64.88
2023-02-26T12:30:51.468Z,64.44
2023-02-26T12:34:50.572Z,64.29
2023-02-26T12:38:27.357Z,64.18
2023-02-26T12:42:11.924Z,64.33
2023-02-26T12:45:54.343Z,64.32
2023-02-26T12:49:56.367Z,64.07
2023-02-26T12:53:44.785Z,64.21
2023-02-26T12:57:51.880Z,64.27
2023-02-26T13:01:59.467Z,63.99
2023-02-26T13:05:44.386Z,64.18
2023-02-26T13:09:27.205Z,64.56
2023-02-26T13:13:05.075Z,64.52
2023-02-26T13:16:46.652Z,64.38
2023-02-26T13:20:19.723Z,64.18
2023-02-26T13:23:53.004Z,64.37
2023-02-26T13:27:19.463Z,64.55
2023-02-26T13:30:50.843Z,64.55
2023-02-26T13:34:22.043Z,64.33
2023-02-26T13:37:52.074Z,64.22
2023-02-26T13:41:28.468Z,64.15
2023-02-26T13:45:05.207Z,63.95
2023-02-26T13:48:42.466Z,63.86
2023-02-26T13:52:23.742Z,63.80
2023-02-26T13:55:53.546Z,63.30
2023-02-26T13:59:39.311Z,63.60
2023-02-26T14:03:35.183Z,63.24
2023-02-26T14:07:09.462Z,63.37
2023-02-26T14:10:48.109Z,62.87
2023-02-26T14:14:37.231Z,63.26
2023-02-26T14:18:23.204Z,62.85
2023-02-26T14:21:59.217Z,62.75
2023-02-26T14:25:37.639Z,62.57
2023-02-26T14:29:21.278Z,62.82
2023-02-26T14:32:49.304Z,62.62
2023-02-26T14:36:22.875Z,62.79
2023-02-26T14:40:00.127Z,62.54
2023-02-26T14:43:40.294Z,62.52
2023-02-26T14:47:08.035Z,62.94
2023-02-26T14:50:46.450Z,62.48
2023-02-26T14:54:29.966Z,62.55
2023-02-26T14:58:16.802Z,62.29
2023-02-26T15:01:53.654Z,62.31
2023-02-26T15:05:47.315Z,62.52
2023-02-26T15:09:21.839Z,62.49
2023-02-26T15:13:04.218Z,62.71
2023-02-26T15:16:44.307Z,62.29
2023-02-26T15:20:25.179Z,61.85
2023-02-26T15:23:54.051Z,61.81
2023-02-26T15:27:23.564Z,61.59
2023-02-26T15:30:52.797Z,61.59
2023-02-26T15:34:21.078Z,61.27
2023-02-26T15:37:53.221Z,61.20
2023-02-26T15:41:20.833Z,61.08
2023-02-26T15:44:56.740Z,61.22
2023-02-26T15:48:31.561Z,61.04
2023-02-26T15:51:59.697Z,60.84
2023-02-26T15:55:27.409Z,60.83
2023-02-26T15:58:56.710Z,60.71
2023-02-26T16:02:29.008Z,60.77
2023-02-26T16:06:00.083Z,60.32
2023-02-26T16:09:35.269Z,60.42
2023-02-26T16:13:06.564Z,60.33
2023-02-26T16:16:42.624Z,60.38
2023-02-26T16:20:19.582Z,60.52
2023-02-26T16:23:51.146Z,60.29
2023-02-26T16:27:21.919Z,60.51
2023-02-26T16:30:54.350Z,60.34
2023-02-26T16:34:42.303Z,60.31
2023-02-26T16:38:20.360Z,60.48
2023-02-26T16:42:02.156Z,60.41
2023-02-26T16:45:51.142Z,60.48
2023-02-26T16:49:24.131Z,60.46
2023-02-26T16:52:59.761Z,60.45
2023-02-26T16:56:34.946Z,60.53
2023-02-26T17:00:09.678Z,60.62
2023-02-26T17:03:38.040Z,60.80
2023-02-26T17:07:19.028Z,60.72
2023-02-26T17:10:51.979Z,60.88
2023-02-26T17:14:25.894Z,60.79
2023-02-26T17:17:56.872Z,60.84
2023-02-26T17:21:23.849Z,60.85
2023-02-26T17:24:52.948Z,60.69
2023-02-26T17:28:24.603Z,60.83
2023-02-26T17:31:51.334Z,60.64
2023-02-26T17:35:20.499Z,60.86
2023-02-26T17:38:50.740Z,60.90
2023-02-26T17:42:21.600Z,60.74
2023-02-26T17:45:49.097Z,60.78
2023-02-26T17:49:16.614Z,60.74
2023-02-26T17:52:43.555Z,60.85
2023-02-26T17:56:16.803Z,60.80
2023-02-26T17:59:46.654Z,60.88
2023-02-26T18:03:13.383Z,61.04
2023-02-26T18:06:40.820Z,61.06
2023-02-26T18:10:17.382Z,61.19
2023-02-26T18:13:44.968Z,61.19
2023-02-26T18:17:17.743Z,61.25
2023-02-26T18:20:46.407Z,61.34
2023-02-26T18:24:13.663Z,61.61
2023-02-26T18:27:42.437Z,61.47
2023-02-26T18:31:10.514Z,61.68
2023-02-26T18:34:37.337Z,61.80
2023-02-26T18:38:04.787Z,61.78
2023-02-26T18:41:32.851Z,61.90
2023-02-26T18:44:59.983Z,62.09
2023-02-26T18:48:29.065Z,62.18
2023-02-26T18:51:56.488Z,62.28
2023-02-26T18:55:28.147Z,62.45
2023-02-26T18:58:55.357Z,62.68
2023-02-26T19:02:26.662Z,62.77
2023-02-26T19:06:00.821Z,63.13
2023-02-26T19:09:29.528Z,63.20
2023-02-26T19:13:00.428Z,63.38
2023-02-26T19:16:33.103Z,63.54
2023-02-26T19:20:00.252Z,63.71
2023-02-26T19:23:40.048Z,63.75
2023-02-26T19:27:13.266Z,63.71
2023-02-26T19:30:43.418Z,63.76
2023-02-26T19:34:11.286Z,63.79
2023-02-26T19:37:41.344Z,63.81
2023-02-26T19:41:10.336Z,63.94
2023-02-26T19:44:38.395Z,63.94
2023-02-26T19:48:07.798Z,64.05
2023-02-26T19:51:36.938Z,64.10
2023-02-26T19:55:04.947Z,64.22
2023-02-26T19:58:34.676Z,64.32
2023-02-26T20:02:05.811Z,64.27
2023-02-26T20:05:34.410Z,64.40
2023-02-26T20:09:01.353Z,64.37
2023-02-26T20:12:30.601Z,64.53
2023-02-26T20:16:00.255Z,64.56
2023-02-26T20:19:28.002Z,64.47
2023-02-26T20:22:56.886Z,64.62
2023-02-26T20:26:31.328Z,64.57
2023-02-26T20:29:59.352Z,64.62
2023-02-26T20:33:26.856Z,64.56
2023-02-26T20:36:55.832Z,64.76
2023-02-26T20:40:23.243Z,64.79
2023-02-26T20:43:53.603Z,64.82
2023-02-26T20:47:20.850Z,64.84
2023-02-26T20:51:07.610Z,65.07
2023-02-26T20:54:35.637Z,65.00
2023-02-26T20:58:07.219Z,65.03
2023-02-26T21:01:37.909Z,65.01
2023-02-26T21:05:07.982Z,65.01
2023-02-26T21:08:38.064Z,64.85
2023-02-26T21:12:06.268Z,64.80
2023-02-26T21:15:33.853Z,64.77
2023-02-26T21:19:02.804Z,64.65
2023-02-26T21:22:30.585Z,64.67
2023-02-26T21:25:58.016Z,64.78
2023-02-26T21:29:29.786Z,64.85
2023-02-26T21:32:57.883Z,64.71
2023-02-26T21:36:25.046Z,64.91
2023-02-26T21:39:54.642Z,64.94
2023-02-26T21:43:23.933Z,65.04
2023-02-26T21:46:51.446Z,64.95
2023-02-26T21:50:20.246Z,65.17
2023-02-26T21:53:50.002Z,65.19
2023-02-26T21:57:19.854Z,65.45
2023-02-26T22:00:49.253Z,65.46
2023-02-26T22:04:18.948Z,65.48
2023-02-26T22:07:46.938Z,65.66
2023-02-26T22:11:16.435Z,65.72
2023-02-26T22:14:52.282Z,65.67
2023-02-26T22:18:20.990Z,65.94
2023-02-26T22:21:49.369Z,65.98
2023-02-26T22:25:17.629Z,66.10
2023-02-26T22:28:45.779Z,66.19
2023-02-26T22:32:13.496Z,66.23
2023-02-26T22:35:42.986Z,66.41
2023-02-26T22:39:10.401Z,66.27
2023-02-26T22:42:37.116Z,66.35
2023-02-26T22:46:05.286Z,66.25
2023-02-26T22:49:33.408Z,66.05
2023-02-26T22:53:02.132Z,66.26
2023-02-26T22:56:31.093Z,66.14
2023-02-26T22:59:58.502Z,66.28
2023-02-26T23:03:29.844Z,66.38
2023-02-26T23:06:57.828Z,66.25
2023-02-26T23:10:24.619Z,66.37
2023-02-26T23:13:52.019Z,66.33
2023-02-26T23:17:21.213Z,66.52
2023-02-26T23:20:49.984Z,66.57
2023-02-26T23:24:16.721Z,66.51
2023-02-26T23:27:52.904Z,66.49
2023-02-26T23:31:19.582Z,66.48
2023-02-26T23:34:48.214Z,66.61
2023-02-26T23:38:15.687Z,66.65
2023-02-26T23:41:43.397Z,66.74
2023-02-26T23:45:13.418Z,67.02
2023-02-26T23:48:40.837Z,66.90
2023-02-26T23:52:08.512Z,67.05
2023-02-26T23:55:36.522Z,67.05
2023-02-26T23:59:04.322Z,67.19
